Terminal Aerodrome Forecast
Issued by NWS

Current Version | Previous Version | Text Only | Print | Product List | Glossary Off
Versions: 1 2 3 4 5 6 7 8 9 10 11 12 13 14 15 16 17 18

000
FTUS41 KILN 271500 AAA
TAFLCK
TAF AMD
KLCK 271500Z 2715/2812 17007KT P6SM SCT035 BKN250
     FM271700 20014G24KT P6SM BKN250
     FM272300 20012KT P6SM BKN250
     FM281100 21012KT P6SM SCT040 BKN200=

USA.gov is the U.S. government's official web portal to all federal, state and local government web resources and services.